Time;durP1;ratioP1;P1;durP2;ratioP2;P2;SDS_P1;SDS_P2;PMS_P1;PMS_P2;Temp;Humidity;BMP_temperature;BMP_pressure;BME280_temperature;BME280_humidity;BME280_pressure;Samples;Min_cycle;Max_cycle;Signal;HPM_P1;HPM_P2
2022/10/09 00:01:31;;;;;;;;;;;;;;;27.26;34.97;100992.81;5057224;28;1195;-45
2022/10/09 00:03:56;;;;;;;;;;;;;;;27.31;34.98;100984.16;5067885;28;2464;-48
2022/10/09 00:06:25;;;;;;;;;;;;;;;27.22;35.23;100986.09;5064148;28;1120;-55
2022/10/09 00:08:51;;;;;;;;;;;;;;;27.26;35.38;100978.47;5061105;28;1084;-49
2022/10/09 00:11:20;;;;;;;;;;;;;;;27.23;35.28;100973.41;5062803;28;1148;-46
2022/10/09 00:13:45;;;;;;;;;;;;;;;27.23;35.21;100965.31;5073231;28;1906;-48
2022/10/09 00:16:11;;;;;;;;;;;;;;;27.32;35.12;100972.38;5060827;28;1080;-47
2022/10/09 00:18:37;;;;;;;;;;;;;;;27.17;35.01;100974.13;5075962;28;1213;-48
2022/10/09 00:21:02;;;;;;;;;;;;;;;27.23;35.10;100963.47;5058392;28;1120;-48
2022/10/09 00:23:27;;;;;;;;;;;;;;;27.22;35.53;100966.34;5055485;28;1135;-49
2022/10/09 00:25:53;;;;;;;;;;;;;;;27.21;35.62;100964.69;5055863;28;1179;-46
2022/10/09 00:28:19;;;;;;;;;;;;;;;27.23;35.15;100960.75;5055795;28;1174;-53
2022/10/09 00:30:45;;;;;;;;;;;;;;;27.15;35.37;100960.81;5056370;28;1163;-46
2022/10/09 00:33:10;;;;;;;;;;;;;;;27.16;35.10;100959.78;5056983;28;2356;-47
2022/10/09 00:35:38;;;;;;;;;;;;;;;27.24;35.19;100954.31;5079541;28;1087;-49
2022/10/09 00:38:04;;;;;;;;;;;;;;;27.20;35.25;100953.03;5065385;28;1119;-51
2022/10/09 00:40:29;;;;;;;;;;;;;;;27.23;35.28;100962.63;5080000;28;1118;-49
2022/10/09 00:42:55;;;;;;;;;;;;;;;27.24;35.04;100956.22;5064100;28;1128;-49
2022/10/09 00:45:21;;;;;;;;;;;;;;;27.25;35.54;100958.72;5059284;28;1166;-47
2022/10/09 00:47:49;;;;;;;;;;;;;;;27.22;35.37;100964.50;5073158;28;1116;-47
2022/10/09 00:50:26;;;;;;;;;;;;;;;27.22;35.02;100956.41;5059975;28;1155;-50
2022/10/09 00:52:52;;;;;;;;;;;;;;;27.16;35.49;100959.78;5079479;28;1961;-47
2022/10/09 00:55:17;;;;;;;;;;;;;;;27.18;35.21;100957.75;5060053;28;1147;-45
2022/10/09 00:57:43;;;;;;;;;;;;;;;27.24;35.39;100957.03;5041340;28;1190;-49
2022/10/09 01:00:09;;;;;;;;;;;;;;;27.33;35.35;100962.38;5041210;28;1128;-47
2022/10/09 01:02:34;;;;;;;;;;;;;;;27.24;35.26;100961.63;5061836;28;1096;-46
2022/10/09 01:05:00;;;;;;;;;;;;;;;27.21;35.46;100957.41;5075685;28;2600;-49
2022/10/09 01:07:28;;;;;;;;;;;;;;;27.25;35.49;100963.28;5065042;28;1108;-46
2022/10/09 01:09:56;;;;;;;;;;;;;;;27.29;35.32;100956.53;5078901;28;1448;-46
2022/10/09 01:12:21;;;;;;;;;;;;;;;27.25;35.53;100953.31;5062547;28;1902;-46
2022/10/09 01:14:50;;;;;;;;;;;;;;;27.27;35.26;100955.84;5058011;28;1512;-47
2022/10/09 01:17:25;;;;;;;;;;;;;;;27.22;35.31;100952.84;5041275;28;1155;-47
2022/10/09 01:20:10;;;;;;;;;;;;;;;27.21;35.47;100952.00;5059115;28;1172;-46
2022/10/09 01:22:44;;;;;;;;;;;;;;;27.18;35.24;100951.50;5041256;28;1084;-47
2022/10/09 01:25:10;;;;;;;;;;;;;;;27.23;35.43;100955.34;5058644;28;1147;-46
2022/10/09 01:27:35;;;;;;;;;;;;;;;27.29;35.29;100948.41;5041915;28;1184;-47
2022/10/09 01:30:01;;;;;;;;;;;;;;;27.24;35.43;100945.41;5053722;28;1139;-48
2022/10/09 01:32:30;;;;;;;;;;;;;;;27.22;35.15;100942.88;5040235;28;1898;-46
2022/10/09 01:34:55;;;;;;;;;;;;;;;27.20;35.59;100949.47;5040455;28;1868;-46
2022/10/09 01:37:21;;;;;;;;;;;;;;;27.18;35.03;100948.81;5040239;28;1144;-48
2022/10/09 01:39:46;;;;;;;;;;;;;;;27.14;35.44;100938.34;5044081;28;1132;-48
2022/10/09 01:42:12;;;;;;;;;;;;;;;27.23;35.43;100939.16;5051361;28;1155;-50
2022/10/09 01:44:37;;;;;;;;;;;;;;;27.15;35.28;100931.09;5058275;28;1115;-47
2022/10/09 01:47:03;;;;;;;;;;;;;;;27.21;35.58;100937.66;5058292;28;1116;-47
2022/10/09 01:49:55;;;;;;;;;;;;;;;27.20;35.32;100934.13;5057985;28;1084;-47
2022/10/09 01:52:50;;;;;;;;;;;;;;;27.14;35.04;100935.66;5071604;28;1890;-50
2022/10/09 01:55:27;;;;;;;;;;;;;;;27.15;35.36;100933.81;5041384;28;1448;-47
2022/10/09 01:58:01;;;;;;;;;;;;;;;27.11;35.32;100937.91;5058204;28;1155;-51
2022/10/09 02:00:27;;;;;;;;;;;;;;;27.13;35.20;100938.53;5057675;28;1390;-46
2022/10/09 02:02:52;;;;;;;;;;;;;;;27.16;35.29;100940.88;5047659;28;1101;-47
2022/10/09 02:05:20;;;;;;;;;;;;;;;27.07;35.43;100945.50;5072552;28;2484;-47
2022/10/09 02:07:45;;;;;;;;;;;;;;;27.05;35.29;100944.84;5058100;28;985;-48
2022/10/09 02:10:11;;;;;;;;;;;;;;;27.12;35.27;100947.66;5058313;28;1477;-46
2022/10/09 02:12:37;;;;;;;;;;;;;;;27.08;35.20;100949.03;5039699;28;1902;-46
2022/10/09 02:15:03;;;;;;;;;;;;;;;27.01;35.31;100952.44;5060699;28;1004;-47
2022/10/09 02:17:29;;;;;;;;;;;;;;;27.05;35.33;100946.69;5040322;28;1155;-48
2022/10/09 02:19:55;;;;;;;;;;;;;;;27.08;35.45;100949.03;5057676;28;1265;-47
2022/10/09 02:22:22;;;;;;;;;;;;;;;27.09;35.36;100950.72;5040226;28;1128;-47
2022/10/09 02:24:47;;;;;;;;;;;;;;;27.10;35.72;100947.84;5057886;28;1159;-48
2022/10/09 02:27:12;;;;;;;;;;;;;;;27.09;35.64;100950.72;5057544;28;1160;-49
2022/10/09 02:29:41;;;;;;;;;;;;;;;27.04;35.70;100948.56;5039735;28;1108;-47
2022/10/09 02:32:07;;;;;;;;;;;;;;;27.07;35.56;100942.81;5040301;28;1953;-46
2022/10/09 02:34:32;;;;;;;;;;;;;;;27.04;35.24;100942.31;5039728;28;1144;-47
2022/10/09 02:36:57;;;;;;;;;;;;;;;27.05;35.60;100949.38;5057754;28;1115;-45
2022/10/09 02:39:22;;;;;;;;;;;;;;;27.08;35.31;100949.88;5057048;28;1148;-49
2022/10/09 02:41:48;;;;;;;;;;;;;;;27.07;35.54;100953.63;5057395;28;1207;-46
2022/10/09 02:44:13;;;;;;;;;;;;;;;27.05;35.26;100952.09;5057203;28;1108;-48
2022/10/09 02:46:38;;;;;;;;;;;;;;;27.13;35.42;100950.19;5057522;28;1195;-46
2022/10/09 02:49:04;;;;;;;;;;;;;;;27.11;35.71;100946.00;5057642;28;1155;-48
2022/10/09 02:51:29;;;;;;;;;;;;;;;27.13;35.44;100949.34;5057137;28;1112;-46
2022/10/09 02:53:55;;;;;;;;;;;;;;;27.03;35.39;100960.38;5057339;28;1961;-47
2022/10/09 02:56:23;;;;;;;;;;;;;;;27.06;35.56;100951.09;5056190;28;1187;-47
2022/10/09 02:58:48;;;;;;;;;;;;;;;27.08;35.40;100966.09;5057121;28;1097;-49
2022/10/09 03:01:13;;;;;;;;;;;;;;;27.04;35.51;100962.06;5057157;28;1214;-49
2022/10/09 03:03:39;;;;;;;;;;;;;;;26.99;35.59;100961.72;5070789;28;1188;-48
2022/10/09 03:06:05;;;;;;;;;;;;;;;27.04;35.30;100966.63;5070834;28;1151;-48
2022/10/09 03:08:31;;;;;;;;;;;;;;;27.04;35.54;100969.31;5057302;28;1214;-49
2022/10/09 03:10:56;;;;;;;;;;;;;;;27.01;35.77;100965.06;5061150;28;1206;-46
2022/10/09 03:13:21;;;;;;;;;;;;;;;27.10;35.83;100971.31;5066376;28;1906;-51
2022/10/09 03:15:46;;;;;;;;;;;;;;;26.98;35.68;100970.81;5072895;28;1338;-48
2022/10/09 03:18:12;;;;;;;;;;;;;;;26.46;31.06;100978.47;5068264;28;1131;-49
2022/10/09 03:20:37;;;;;;;;;;;;;;;25.66;29.12;100977.16;5070644;28;1116;-47
2022/10/09 03:23:02;;;;;;;;;;;;;;;25.86;30.49;100984.09;5056617;28;1127;-53
2022/10/09 03:25:28;;;;;;;;;;;;;;;26.20;30.21;100977.66;5056544;28;951;-50
2022/10/09 03:27:53;;;;;;;;;;;;;;;26.10;29.18;100982.38;5064352;28;2021;-50
2022/10/09 03:30:18;;;;;;;;;;;;;;;26.13;28.99;100982.03;5066820;28;1100;-49
2022/10/09 03:32:44;;;;;;;;;;;;;;;26.03;29.27;100990.28;5055724;28;1902;-50
2022/10/09 03:35:09;;;;;;;;;;;;;;;25.92;28.49;100989.63;5056126;28;1167;-47
2022/10/09 03:37:34;;;;;;;;;;;;;;;25.85;28.45;100993.16;5056277;28;1136;-49
2022/10/09 03:39:59;;;;;;;;;;;;;;;25.78;28.54;100996.53;5063965;28;1112;-51
2022/10/09 03:42:25;;;;;;;;;;;;;;;25.27;27.19;100994.78;5065189;28;1201;-48
2022/10/09 03:44:50;;;;;;;;;;;;;;;24.99;27.85;100994.19;5055778;28;1172;-50
2022/10/09 03:47:15;;;;;;;;;;;;;;;24.88;27.95;100996.13;5065250;28;1245;-45
2022/10/09 03:49:41;;;;;;;;;;;;;;;24.86;28.58;100991.91;5062072;28;1190;-52
2022/10/09 03:52:06;;;;;;;;;;;;;;;24.77;28.50;100991.88;5075633;28;1906;-48
2022/10/09 03:54:31;;;;;;;;;;;;;;;24.40;28.57;100993.00;5062245;28;1198;-50
2022/10/09 03:56:57;;;;;;;;;;;;;;;24.81;28.36;100993.22;5058544;28;1796;-56
2022/10/09 03:59:22;;;;;;;;;;;;;;;24.85;28.36;100993.75;5056069;28;1143;-55
2022/10/09 04:01:47;;;;;;;;;;;;;;;24.95;28.04;101001.72;5056389;28;1199;-47
2022/10/09 04:04:13;;;;;;;;;;;;;;;24.52;27.70;100999.81;5074354;28;1135;-45
2022/10/09 04:06:38;;;;;;;;;;;;;;;24.34;27.65;101000.69;5065022;28;1170;-43
2022/10/09 04:09:03;;;;;;;;;;;;;;;24.43;27.51;100993.53;5055376;28;1124;-44
2022/10/09 04:11:28;;;;;;;;;;;;;;;24.39;27.64;100992.16;5055865;28;1155;-42
2022/10/09 04:13:54;;;;;;;;;;;;;;;24.32;27.87;100989.25;5055648;28;1914;-41
2022/10/09 04:16:19;;;;;;;;;;;;;;;24.70;28.23;100989.00;5057909;28;1049;-47
2022/10/09 04:18:46;;;;;;;;;;;;;;;25.32;28.42;100986.19;5055285;28;1219;-44
2022/10/09 04:21:11;;;;;;;;;;;;;;;25.51;28.27;100984.19;5056622;28;1128;-47
2022/10/09 04:23:37;;;;;;;;;;;;;;;25.62;28.65;100994.66;5056553;28;1212;-44
2022/10/09 04:26:02;;;;;;;;;;;;;;;25.67;28.75;100994.19;5054506;28;1184;-44
2022/10/09 04:28:28;;;;;;;;;;;;;;;25.76;29.21;101000.41;5063090;28;1820;-44
2022/10/09 04:30:53;;;;;;;;;;;;;;;25.64;29.50;101000.72;5054990;28;1211;-46
2022/10/09 04:33:18;;;;;;;;;;;;;;;25.69;29.90;101002.94;5055129;28;1959;-45
2022/10/09 04:35:44;;;;;;;;;;;;;;;25.68;30.22;101007.50;5055134;28;1180;-44
2022/10/09 04:38:09;;;;;;;;;;;;;;;25.68;30.78;101012.03;5054768;28;1247;-45
2022/10/09 04:40:34;;;;;;;;;;;;;;;25.72;31.31;101009.84;5057289;28;1250;-45
2022/10/09 04:43:00;;;;;;;;;;;;;;;25.73;31.61;101000.75;5055315;28;1183;-46
2022/10/09 04:45:25;;;;;;;;;;;;;;;25.94;31.46;101008.34;5054700;28;1259;-45
2022/10/09 04:47:50;;;;;;;;;;;;;;;25.83;32.31;101011.34;5054609;28;1259;-45
2022/10/09 04:50:16;;;;;;;;;;;;;;;25.80;32.51;101016.09;5054984;28;1263;-46
2022/10/09 04:52:41;;;;;;;;;;;;;;;25.75;32.83;101021.13;5058780;28;1973;-44
2022/10/09 04:55:06;;;;;;;;;;;;;;;25.79;32.98;101017.09;5054799;28;1208;-46
2022/10/09 04:57:32;;;;;;;;;;;;;;;25.82;32.67;101018.63;5056896;28;1903;-47
2022/10/09 04:59:57;;;;;;;;;;;;;;;25.81;32.91;101019.59;5055744;28;1144;-45
2022/10/09 05:02:22;;;;;;;;;;;;;;;25.82;32.80;101018.63;5058827;28;1155;-50
2022/10/09 05:04:47;;;;;;;;;;;;;;;25.90;32.53;101015.06;5067812;28;1286;-46
2022/10/09 05:07:13;;;;;;;;;;;;;;;25.91;33.14;101014.91;5069826;28;1116;-51
2022/10/09 05:09:38;;;;;;;;;;;;;;;25.99;33.27;101016.75;5057479;28;978;-50
2022/10/09 05:12:03;;;;;;;;;;;;;;;26.06;32.47;101022.31;5065927;28;1993;-50
2022/10/09 05:14:29;;;;;;;;;;;;;;;26.07;33.02;101018.63;5058782;28;1163;-51
2022/10/09 05:16:56;;;;;;;;;;;;;;;26.08;32.85;101017.59;5063691;28;994;-52
2022/10/09 05:19:21;;;;;;;;;;;;;;;26.13;33.07;101022.47;5074219;28;1111;-50
2022/10/09 05:21:46;;;;;;;;;;;;;;;26.19;32.74;101013.72;5058693;28;1142;-48
2022/10/09 05:24:11;;;;;;;;;;;;;;;26.14;33.00;101016.91;5058632;28;1143;-50
2022/10/09 05:26:37;;;;;;;;;;;;;;;26.19;33.10;101019.13;5058703;28;1144;-54
2022/10/09 05:29:02;;;;;;;;;;;;;;;26.22;33.44;101028.72;5068333;28;2174;-49
2022/10/09 05:31:27;;;;;;;;;;;;;;;26.22;33.25;101029.56;5072496;28;1049;-53
2022/10/09 05:33:53;;;;;;;;;;;;;;;26.27;32.77;101035.28;5065282;28;1975;-49
2022/10/09 05:36:18;;;;;;;;;;;;;;;26.29;33.48;101035.13;5077811;28;1147;-52
2022/10/09 05:38:44;;;;;;;;;;;;;;;26.34;33.35;101032.75;5066587;28;1151;-54
2022/10/09 05:41:10;;;;;;;;;;;;;;;26.32;33.72;101039.31;5074665;28;896;-50
2022/10/09 05:43:36;;;;;;;;;;;;;;;26.37;33.56;101043.22;5064177;28;1203;-50
2022/10/09 05:46:05;;;;;;;;;;;;;;;26.40;33.42;101037.50;5062296;28;1121;-53
2022/10/09 05:48:31;;;;;;;;;;;;;;;26.40;33.33;101050.13;5065164;28;1128;-49
2022/10/09 05:51:11;;;;;;;;;;;;;;;26.42;33.28;101045.41;5076543;28;1095;-50
2022/10/09 05:53:36;;;;;;;;;;;;;;;26.47;33.58;101051.13;5064788;28;1967;-51
2022/10/09 05:56:18;;;;;;;;;;;;;;;26.54;33.36;101045.91;5071760;28;1029;-52
2022/10/09 05:58:43;;;;;;;;;;;;;;;26.58;33.23;101055.31;5063098;28;1858;-51
2022/10/09 06:01:09;;;;;;;;;;;;;;;26.71;32.89;101056.66;5057731;28;1120;-50
2022/10/09 06:03:37;;;;;;;;;;;;;;;26.73;32.89;101057.28;5061318;28;1402;-53
2022/10/09 06:06:03;;;;;;;;;;;;;;;26.73;33.19;101062.69;5057566;28;1180;-51
2022/10/09 06:08:30;;;;;;;;;;;;;;;26.76;33.31;101060.50;5057291;28;1151;-52
2022/10/09 06:10:55;;;;;;;;;;;;;;;26.91;32.88;101062.47;5058116;28;1207;-55
2022/10/09 06:13:20;;;;;;;;;;;;;;;26.96;32.65;101061.97;5057626;28;1977;-50
2022/10/09 06:15:52;;;;;;;;;;;;;;;27.01;32.75;101079.34;5057795;28;1143;-52
2022/10/09 06:18:17;;;;;;;;;;;;;;;27.08;32.71;101063.28;5058171;28;904;-50
2022/10/09 06:20:51;;;;;;;;;;;;;;;27.00;32.96;101076.78;5057472;28;1108;-49
2022/10/09 06:23:17;;;;;;;;;;;;;;;28.51;30.81;101076.72;5057072;28;1105;-52
2022/10/09 06:25:49;;;;;;;;;;;;;;;27.61;32.32;101072.66;5057121;28;1247;-48
2022/10/09 06:28:14;;;;;;;;;;;;;;;27.60;32.39;101074.50;5065381;28;2377;-48
2022/10/09 06:30:40;;;;;;;;;;;;;;;27.54;32.07;101075.22;5059602;28;1002;-48
2022/10/09 06:33:05;;;;;;;;;;;;;;;27.54;31.99;101063.56;5057379;28;1965;-48
2022/10/09 06:35:33;;;;;;;;;;;;;;;27.48;32.29;101065.97;5057217;28;1147;-49
2022/10/09 06:37:58;;;;;;;;;;;;;;;27.46;32.27;101069.88;5057473;28;1171;-48
2022/10/09 06:40:23;;;;;;;;;;;;;;;27.38;31.71;101066.19;5057027;28;1088;-50
2022/10/09 06:42:48;;;;;;;;;;;;;;;27.49;31.88;101067.63;5076642;28;996;-49
2022/10/09 06:45:14;;;;;;;;;;;;;;;27.50;31.94;101063.94;5077555;28;1131;-48
2022/10/09 06:47:39;;;;;;;;;;;;;;;27.58;32.00;101072.97;5058388;28;1183;-48
2022/10/09 06:50:05;;;;;;;;;;;;;;;27.58;31.86;101072.97;5057149;28;1154;-48
2022/10/09 06:52:30;;;;;;;;;;;;;;;27.59;31.83;101071.97;5056691;28;1898;-46
2022/10/09 06:54:55;;;;;;;;;;;;;;;27.65;31.72;101068.56;5060849;28;1120;-47
2022/10/09 06:57:21;;;;;;;;;;;;;;;27.65;31.81;101073.97;5059181;28;1863;-46
2022/10/09 06:59:48;;;;;;;;;;;;;;;27.78;31.56;101075.28;5056553;28;1282;-57
2022/10/09 07:02:14;;;;;;;;;;;;;;;27.79;31.76;101074.25;5056217;28;1167;-52
2022/10/09 07:04:39;;;;;;;;;;;;;;;27.78;31.58;101078.00;5065164;28;1282;-52
2022/10/09 07:07:05;;;;;;;;;;;;;;;27.90;31.73;101078.38;5058579;28;1231;-55
2022/10/09 07:09:30;;;;;;;;;;;;;;;27.91;31.57;101082.78;5056453;28;1282;-50
2022/10/09 07:11:55;;;;;;;;;;;;;;;27.94;31.18;101085.13;5056486;28;1909;-50
2022/10/09 07:14:20;;;;;;;;;;;;;;;28.01;31.36;101086.06;5055941;28;1263;-48
2022/10/09 07:16:47;;;;;;;;;;;;;;;28.01;31.54;101083.38;5056535;28;1318;-53
2022/10/09 07:19:12;;;;;;;;;;;;;;;28.04;31.20;101087.59;5058938;28;1216;-52
2022/10/09 07:21:39;;;;;;;;;;;;;;;28.06;31.23;101086.38;5055739;28;1187;-53
2022/10/09 07:24:04;;;;;;;;;;;;;;;28.10;31.19;101092.25;5056158;28;1219;-53
2022/10/09 07:26:30;;;;;;;;;;;;;;;28.16;31.29;101083.41;5056182;28;1156;-54
2022/10/09 07:28:55;;;;;;;;;;;;;;;28.18;31.20;101084.06;5062144;28;1816;-51
2022/10/09 07:31:21;;;;;;;;;;;;;;;28.21;31.25;101085.59;5058513;28;1362;-52
2022/10/09 07:33:50;;;;;;;;;;;;;;;28.27;30.94;101090.28;5055746;28;1901;-52
2022/10/09 07:36:16;;;;;;;;;;;;;;;28.22;30.97;101092.69;5056062;28;1312;-51
2022/10/09 07:38:41;;;;;;;;;;;;;;;28.33;30.90;101094.97;5056506;28;1148;-52
2022/10/09 07:41:07;;;;;;;;;;;;;;;28.84;31.00;101092.63;5059552;28;1084;-49
2022/10/09 07:43:39;;;;;;;;;;;;;;;29.36;29.72;101094.56;5055375;28;1263;-46
2022/10/09 07:46:05;;;;;;;;;;;;;;;29.57;29.40;101088.31;5055940;28;1211;-48
2022/10/09 07:48:30;;;;;;;;;;;;;;;29.74;29.06;101090.81;5058564;28;1247;-49
2022/10/09 07:50:56;;;;;;;;;;;;;;;29.92;28.57;101084.94;5056087;28;1240;-48
2022/10/09 07:53:21;;;;;;;;;;;;;;;30.02;28.52;101084.63;5056177;28;1919;-52
2022/10/09 07:55:47;;;;;;;;;;;;;;;30.10;28.42;101080.94;5055884;28;1147;-52
2022/10/09 07:58:13;;;;;;;;;;;;;;;29.97;28.63;101078.94;5068541;28;2082;-46
2022/10/09 08:00:38;;;;;;;;;;;;;;;29.99;28.65;101071.47;5058993;28;1219;-45
2022/10/09 08:03:03;;;;;;;;;;;;;;;29.90;28.53;101066.16;5065360;28;1123;-48
2022/10/09 08:05:28;;;;;;;;;;;;;;;29.85;28.49;101079.47;5060314;28;1163;-47
2022/10/09 08:07:54;;;;;;;;;;;;;;;29.82;28.61;101075.28;5055935;28;1100;-47
2022/10/09 08:10:19;;;;;;;;;;;;;;;29.72;28.57;101073.91;5055769;28;1174;-47
2022/10/09 08:12:44;;;;;;;;;;;;;;;29.68;28.68;101066.16;5055459;28;1992;-45
2022/10/09 08:15:10;;;;;;;;;;;;;;;29.75;28.49;101063.53;5055620;28;1120;-44
2022/10/09 08:17:35;;;;;;;;;;;;;;;29.70;28.63;101072.25;5055262;28;1429;-43
2022/10/09 08:20:00;;;;;;;;;;;;;;;29.62;28.77;101063.38;5055450;28;1116;-43
2022/10/09 08:22:26;;;;;;;;;;;;;;;29.45;28.74;101060.88;5055529;28;1206;-43
2022/10/09 08:24:51;;;;;;;;;;;;;;;29.47;28.71;101066.97;5055553;28;1084;-45
2022/10/09 08:27:16;;;;;;;;;;;;;;;29.51;28.78;101062.81;5060554;28;1868;-45
2022/10/09 08:29:41;;;;;;;;;;;;;;;29.43;28.56;101066.50;5071439;28;1147;-44
2022/10/09 08:32:07;;;;;;;;;;;;;;;29.36;28.79;101060.19;5055510;28;1967;-44
2022/10/09 08:34:32;;;;;;;;;;;;;;;29.40;28.64;101060.63;5055278;28;1124;-44
2022/10/09 08:36:57;;;;;;;;;;;;;;;29.47;28.65;101058.81;5055825;28;1163;-45
2022/10/09 08:39:23;;;;;;;;;;;;;;;29.39;28.37;101058.94;5055800;28;1176;-43
2022/10/09 08:42:00;;;;;;;;;;;;;;;29.36;28.42;101052.06;5041399;28;1048;-44
2022/10/09 08:44:25;;;;;;;;;;;;;;;29.34;28.46;101048.69;5061610;28;1103;-43
2022/10/09 08:47:09;;;;;;;;;;;;;;;29.34;28.34;101046.78;5055613;28;1235;-44
2022/10/09 08:49:43;;;;;;;;;;;;;;;29.29;28.36;101045.69;5055607;28;1223;-45
2022/10/09 08:52:28;;;;;;;;;;;;;;;29.86;28.51;101048.63;5044556;28;1910;-44
2022/10/09 08:54:54;;;;;;;;;;;;;;;29.53;28.61;101044.50;5048929;28;1316;-47
2022/10/09 08:57:20;;;;;;;;;;;;;;;28.80;30.37;101042.56;5063891;28;1821;-48
2022/10/09 08:59:45;;;;;;;;;;;;;;;28.70;30.69;101041.00;5068047;28;1135;-45
2022/10/09 09:02:40;;;;;;;;;;;;;;;29.22;29.65;101045.63;5060483;28;1135;-45
2022/10/09 09:05:19;;;;;;;;;;;;;;;29.65;28.66;101044.03;5045103;28;1356;-44
2022/10/09 09:08:15;;;;;;;;;;;;;;;29.70;28.45;101045.13;5061439;28;1009;-46
2022/10/09 09:11:04;;;;;;;;;;;;;;;29.70;28.16;101044.28;5061775;28;1381;-46
2022/10/09 09:13:29;;;;;;;;;;;;;;;29.67;28.22;101034.69;5040717;28;1926;-44
2022/10/09 09:15:57;;;;;;;;;;;;;;;29.72;28.41;101038.66;5061275;28;1190;-45
2022/10/09 09:18:41;;;;;;;;;;;;;;;29.69;28.54;101029.06;5043452;28;1195;-47
2022/10/09 09:21:12;;;;;;;;;;;;;;;29.50;28.39;101030.50;5058191;28;1159;-44
2022/10/09 09:23:38;;;;;;;;;;;;;;;29.53;28.29;101028.25;5040775;28;1169;-48
2022/10/09 09:26:08;;;;;;;;;;;;;;;29.49;28.08;101031.53;5058478;28;1195;-46
2022/10/09 09:28:34;;;;;;;;;;;;;;;29.54;28.03;101029.94;5043322;28;1932;-48
2022/10/09 09:31:01;;;;;;;;;;;;;;;29.50;28.02;101025.91;5060680;28;1286;-47
2022/10/09 09:33:43;;;;;;;;;;;;;;;29.50;28.08;101025.06;5057964;28;1964;-45
2022/10/09 09:36:24;;;;;;;;;;;;;;;29.62;28.43;101025.44;5040619;28;1246;-46
2022/10/09 09:38:49;;;;;;;;;;;;;;;29.70;28.08;101022.59;5040328;28;1195;-46
2022/10/09 09:41:15;;;;;;;;;;;;;;;29.71;27.86;101024.28;5039947;28;1231;-46
2022/10/09 09:43:41;;;;;;;;;;;;;;;29.68;28.14;101025.50;5043269;28;1325;-48
2022/10/09 09:46:09;;;;;;;;;;;;;;;29.67;27.70;101023.84;5057569;28;1215;-46
2022/10/09 09:48:35;;;;;;;;;;;;;;;29.71;27.54;101016.16;5039930;28;1247;-45
2022/10/09 09:51:02;;;;;;;;;;;;;;;29.72;27.70;101025.09;5059471;28;1294;-46
2022/10/09 09:53:34;;;;;;;;;;;;;;;29.64;27.98;101026.09;5070231;28;1905;-50
2022/10/09 09:56:00;;;;;;;;;;;;;;;29.77;28.70;101031.63;5071177;28;1068;-48
2022/10/09 09:58:31;;;;;;;;;;;;;;;30.09;27.88;101017.72;5044532;28;1960;-44
2022/10/09 10:00:59;;;;;;;;;;;;;;;30.15;27.59;101025.06;5057144;28;1172;-44
2022/10/09 10:03:25;;;;;;;;;;;;;;;30.20;27.22;101021.78;5067462;28;1187;-44
2022/10/09 10:05:50;;;;;;;;;;;;;;;30.22;27.21;101005.31;5069227;28;1294;-45
2022/10/09 10:08:29;;;;;;;;;;;;;;;29.82;27.45;101029.19;5059966;28;1384;-44
2022/10/09 10:10:55;;;;;;;;;;;;;;;29.03;29.78;101025.41;5057173;28;1235;-44
2022/10/09 10:13:21;;;;;;;;;;;;;;;28.94;30.02;101025.47;5057274;28;1914;-44
2022/10/09 10:15:51;;;;;;;;;;;;;;;28.80;30.20;101012.78;5040274;28;1341;-44
2022/10/09 10:18:16;;;;;;;;;;;;;;;28.93;30.49;101029.19;5041413;28;1133;-57
2022/10/09 10:20:45;;;;;;;;;;;;;;;29.33;29.64;101018.03;5064981;28;1175;-45
2022/10/09 10:23:31;;;;;;;;;;;;;;;29.75;28.83;101024.72;5040170;28;1082;-44
2022/10/09 10:25:56;;;;;;;;;;;;;;;30.10;28.74;101027.50;5061281;28;1133;-45
2022/10/09 10:28:23;;;;;;;;;;;;;;;30.22;28.15;101030.56;5046251;28;1904;-48
2022/10/09 10:30:49;;;;;;;;;;;;;;;30.46;27.48;101025.72;5045250;28;1370;-44
2022/10/09 10:33:21;;;;;;;;;;;;;;;30.52;27.31;101026.78;5039539;28;1902;-45
2022/10/09 10:35:48;;;;;;;;;;;;;;;30.73;27.18;101025.03;5057169;28;1278;-46
2022/10/09 10:38:16;;;;;;;;;;;;;;;30.67;26.88;101032.94;5056594;28;1164;-47
2022/10/09 10:40:41;;;;;;;;;;;;;;;30.74;26.74;101010.41;5056978;28;1250;-46
2022/10/09 10:43:10;;;;;;;;;;;;;;;30.63;26.91;101011.81;5058886;28;1266;-47
2022/10/09 10:45:41;;;;;;;;;;;;;;;30.57;27.12;101009.88;5056553;28;1523;-45
2022/10/09 10:48:36;;;;;;;;;;;;;;;30.54;26.88;101008.44;5056928;28;1247;-47
2022/10/09 10:51:01;;;;;;;;;;;;;;;29.80;29.15;101009.56;5050067;28;1227;-48
2022/10/09 10:53:27;;;;;;;;;;;;;;;29.97;29.40;101005.72;5076861;28;1960;-45
2022/10/09 10:55:59;;;;;;;;;;;;;;;30.28;28.46;101008.06;5063953;28;1119;-47
2022/10/09 10:58:25;;;;;;;;;;;;;;;30.27;28.06;101009.09;5053305;28;2201;-46
2022/10/09 11:01:10;;;;;;;;;;;;;;;30.33;28.16;100995.78;5059372;28;1198;-46
2022/10/09 11:03:39;;;;;;;;;;;;;;;30.18;28.33;100994.81;5052739;28;1184;-48
2022/10/09 11:06:15;;;;;;;;;;;;;;;30.17;27.57;100993.16;5045314;28;1093;-45
2022/10/09 11:08:59;;;;;;;;;;;;;;;30.18;28.31;100994.81;5040488;28;911;-50
2022/10/09 11:11:26;;;;;;;;;;;;;;;30.02;27.60;100989.69;5056725;28;1151;-48
2022/10/09 11:14:11;;;;;;;;;;;;;;;29.91;27.50;100993.78;5038363;28;2001;-48
2022/10/09 11:16:42;;;;;;;;;;;;;;;29.90;27.90;100995.66;5056677;28;1183;-48
2022/10/09 11:19:22;;;;;;;;;;;;;;;30.00;27.74;100989.88;5055917;28;1116;-48
2022/10/09 11:21:59;;;;;;;;;;;;;;;29.87;28.05;100985.19;5056572;28;1202;-47
2022/10/09 11:24:50;;;;;;;;;;;;;;;30.41;27.85;100993.72;5052813;28;1040;-49
2022/10/09 11:27:23;;;;;;;;;;;;;;;30.58;27.33;100992.59;5045013;28;1909;-50
2022/10/09 11:29:54;;;;;;;;;;;;;;;30.68;27.01;100983.00;5038811;28;1116;-51
2022/10/09 11:32:28;;;;;;;;;;;;;;;30.75;26.79;100979.47;5056185;28;1890;-44
2022/10/09 11:35:13;;;;;;;;;;;;;;;30.71;27.09;100981.78;5038607;28;1285;-44
2022/10/09 11:37:39;;;;;;;;;;;;;;;30.40;27.44;100975.78;5056188;28;1144;-45
2022/10/09 11:40:15;;;;;;;;;;;;;;;30.17;27.16;100985.00;5038418;28;1073;-48
2022/10/09 11:42:41;;;;;;;;;;;;;;;30.29;26.80;100982.63;5038439;28;1299;-46
2022/10/09 11:45:22;;;;;;;;;;;;;;;29.73;28.86;100978.00;5038239;28;971;-46
2022/10/09 11:47:59;;;;;;;;;;;;;;;29.65;28.84;100987.94;5055726;28;1164;-43
2022/10/09 11:50:31;;;;;;;;;;;;;;;30.42;28.13;100986.44;5055803;28;1162;-54
2022/10/09 11:52:57;;;;;;;;;;;;;;;30.64;27.51;100989.91;5055875;28;1882;-47
2022/10/09 11:55:24;;;;;;;;;;;;;;;30.89;27.04;100983.13;5039359;28;1144;-48
2022/10/09 11:57:49;;;;;;;;;;;;;;;30.53;28.13;100985.88;5060291;28;1915;-49
2022/10/09 12:00:14;;;;;;;;;;;;;;;31.19;27.01;100982.81;5037847;28;1337;-49
2022/10/09 12:02:40;;;;;;;;;;;;;;;30.92;26.68;100985.44;5058770;28;1164;-53
2022/10/09 12:05:16;;;;;;;;;;;;;;;30.83;26.93;100986.66;5075481;28;1226;-50
2022/10/09 12:07:41;;;;;;;;;;;;;;;30.74;27.01;100985.97;5071404;28;1222;-48
2022/10/09 12:10:27;;;;;;;;;;;;;;;30.64;27.11;100989.91;5037634;28;1302;-55
2022/10/09 12:12:59;;;;;;;;;;;;;;;30.79;26.77;100995.19;5060889;28;1906;-49
2022/10/09 12:15:26;;;;;;;;;;;;;;;30.69;27.03;100992.00;5058035;28;1108;-49
2022/10/09 12:17:51;;;;;;;;;;;;;;;30.84;27.01;101001.91;5076006;28;1163;-49
2022/10/09 12:20:21;;;;;;;;;;;;;;;30.94;27.02;100993.38;5046890;28;920;-53
2022/10/09 12:22:47;;;;;;;;;;;;;;;30.76;26.85;100987.44;5055933;28;1234;-50
2022/10/09 12:25:15;;;;;;;;;;;;;;;30.68;26.94;100999.31;5055496;28;1055;-49
2022/10/09 12:27:40;;;;;;;;;;;;;;;30.53;27.02;101001.34;5046647;28;1979;-51
2022/10/09 12:30:12;;;;;;;;;;;;;;;30.46;27.21;100997.72;5072042;28;1119;-46
2022/10/09 12:32:38;;;;;;;;;;;;;;;30.47;26.92;100996.69;5059732;28;1957;-49
2022/10/09 12:35:12;;;;;;;;;;;;;;;30.37;27.22;100999.75;5041634;28;1105;-50
2022/10/09 12:37:37;;;;;;;;;;;;;;;30.41;27.05;101003.75;5042090;28;1093;-46
2022/10/09 12:40:13;;;;;;;;;;;;;;;30.14;27.23;101008.97;5059376;28;1319;-45
2022/10/09 12:42:38;;;;;;;;;;;;;;;29.57;29.71;101005.16;5059455;28;1088;-46
2022/10/09 12:45:03;;;;;;;;;;;;;;;29.33;29.74;101009.06;5055214;28;1195;-45
2022/10/09 12:47:29;;;;;;;;;;;;;;;29.30;29.84;101004.03;5041878;28;1096;-47
2022/10/09 12:49:57;;;;;;;;;;;;;;;29.15;30.13;100993.22;5059323;28;1104;-47
2022/10/09 12:52:22;;;;;;;;;;;;;;;29.09;30.27;101006.50;5059379;28;1953;-47